Time;durP1;ratioP1;P1;durP2;ratioP2;P2;SDS_P1;SDS_P2;PMS_P1;PMS_P2;Temp;Humidity;BMP_temperature;BMP_pressure;BME280_temperature;BME280_humidity;BME280_pressure;Samples;Min_cycle;Max_cycle;Signal;HPM_P1;HPM_P2
2021/01/17 00:00:11;;;;;;;9.90;4.50;;;-3.20;99.90;;;;;;5070165;28;20150;-76
2021/01/17 00:02:41;;;;;;;10.00;4.70;;;-3.20;99.90;;;;;;5071763;28;20376;-76
2021/01/17 00:05:11;;;;;;;8.48;3.95;;;-3.20;99.90;;;;;;5071224;28;20052;-76
2021/01/17 00:07:37;;;;;;;7.80;4.50;;;-3.30;99.90;;;;;;5069922;28;20021;-75
2021/01/17 00:10:15;;;;;;;9.73;3.58;;;-3.20;99.90;;;;;;5053341;28;20111;-75
2021/01/17 00:12:41;;;;;;;8.75;4.03;;;-3.20;99.90;;;;;;5068732;28;20387;-75
2021/01/17 00:15:09;;;;;;;8.95;4.25;;;-3.30;99.90;;;;;;5071652;28;20070;-75
2021/01/17 00:17:35;;;;;;;9.48;4.00;;;-3.30;99.90;;;;;;5052442;28;20039;-76
2021/01/17 00:20:01;;;;;;;7.93;4.07;;;-3.30;99.90;;;;;;5053025;28;20033;-76
2021/01/17 00:22:27;;;;;;;8.35;4.57;;;-3.40;99.90;;;;;;5050531;28;20032;-76
2021/01/17 00:24:53;;;;;;;8.45;4.40;;;-3.30;99.90;;;;;;5028842;28;20055;-76
2021/01/17 00:27:19;;;;;;;6.22;3.42;;;-3.40;99.90;;;;;;5051386;28;20040;-76
2021/01/17 00:29:44;;;;;;;6.70;4.20;;;-3.40;99.90;;;;;;5047689;28;20029;-76
2021/01/17 00:32:11;;;;;;;8.82;4.22;;;-3.40;99.90;;;;;;5071043;28;20032;-76
2021/01/17 00:34:38;;;;;;;8.63;4.00;;;-3.40;99.90;;;;;;5071339;28;20440;-76
2021/01/17 00:37:04;;;;;;;8.93;4.18;;;-3.50;99.90;;;;;;5069751;28;20036;-75
2021/01/17 00:39:30;;;;;;;10.13;4.38;;;-3.50;99.90;;;;;;5070929;28;20107;-76
2021/01/17 00:41:56;;;;;;;7.85;4.35;;;-3.40;99.90;;;;;;5067767;28;20139;-75
2021/01/17 00:44:21;;;;;;;7.95;4.00;;;-3.50;99.90;;;;;;5046734;28;20485;-76
2021/01/17 00:46:47;;;;;;;7.53;4.32;;;-3.50;99.90;;;;;;5051908;28;20040;-76
2021/01/17 00:49:13;;;;;;;10.25;4.05;;;-3.50;99.90;;;;;;5052044;28;20117;-76
2021/01/17 00:51:45;;;;;;;8.23;4.30;;;-3.50;99.90;;;;;;5036146;28;20028;-76
2021/01/17 00:54:12;;;;;;;8.70;4.10;;;-3.60;99.90;;;;;;5046727;28;20025;-75
2021/01/17 00:56:39;;;;;;;8.70;4.30;;;-3.50;99.90;;;;;;5047600;28;20450;-75
2021/01/17 00:59:07;;;;;;;7.78;4.20;;;-3.60;99.90;;;;;;5051631;28;20553;-76
2021/01/17 01:01:38;;;;;;;8.32;4.05;;;-3.50;99.90;;;;;;5063946;28;20036;-76
2021/01/17 01:04:04;;;;;;;8.50;4.82;;;-3.50;99.90;;;;;;5064774;28;20036;-76
2021/01/17 01:06:29;;;;;;;7.63;4.22;;;-3.50;99.90;;;;;;5066390;28;20032;-76
2021/01/17 01:08:55;;;;;;;7.47;4.15;;;-3.50;99.90;;;;;;5069908;28;20033;-76
2021/01/17 01:11:21;;;;;;;6.97;3.85;;;-3.50;99.90;;;;;;5068502;28;20029;-76
2021/01/17 01:13:48;;;;;;;10.38;4.72;;;-3.50;99.90;;;;;;5069718;28;20027;-76
2021/01/17 01:16:15;;;;;;;7.55;3.92;;;-3.60;99.90;;;;;;5068313;28;20035;-76
2021/01/17 01:18:42;;;;;;;11.40;4.78;;;-3.60;99.90;;;;;;5034344;28;20032;-76
2021/01/17 01:21:08;;;;;;;11.15;5.03;;;-3.60;99.90;;;;;;5070026;28;20020;-75
2021/01/17 01:23:33;;;;;;;7.90;3.97;;;-3.70;99.90;;;;;;5052596;28;20431;-76
2021/01/17 01:26:00;;;;;;;8.85;4.55;;;-3.70;99.90;;;;;;5070027;28;20132;-76
2021/01/17 01:28:26;;;;;;;7.13;3.72;;;-3.70;99.90;;;;;;5068277;28;20021;-75
2021/01/17 01:30:55;;;;;;;10.18;4.40;;;-3.80;99.90;;;;;;5050570;28;20032;-76
2021/01/17 01:33:22;;;;;;;9.93;5.00;;;-3.80;99.90;;;;;;5062737;28;20033;-75
2021/01/17 01:35:48;;;;;;;10.38;4.85;;;-3.80;99.90;;;;;;5070467;28;20557;-75
2021/01/17 01:38:15;;;;;;;7.95;4.32;;;-3.90;99.90;;;;;;5068353;28;20375;-75
2021/01/17 01:40:51;;;;;;;9.43;4.53;;;-3.90;99.90;;;;;;5070280;28;20492;-75
2021/01/17 01:43:22;;;;;;;7.70;4.55;;;-3.90;99.90;;;;;;5070299;28;20399;-76
2021/01/17 01:45:48;;;;;;;7.55;4.40;;;-3.90;99.90;;;;;;5048666;28;20043;-75
2021/01/17 01:48:15;;;;;;;7.63;4.05;;;-3.90;99.90;;;;;;5066257;28;20028;-75
2021/01/17 01:50:41;;;;;;;11.90;5.25;;;-4.00;99.90;;;;;;5068749;28;20031;-76
2021/01/17 01:53:07;;;;;;;9.95;4.38;;;-4.00;99.90;;;;;;5068387;28;20029;-75
2021/01/17 01:55:33;;;;;;;8.65;4.25;;;-4.20;99.90;;;;;;5050916;28;20721;-75
2021/01/17 01:58:04;;;;;;;9.00;4.60;;;-4.20;99.90;;;;;;5064693;28;20051;-75
2021/01/17 02:00:30;;;;;;;8.57;4.63;;;-4.30;99.90;;;;;;5067075;28;20032;-75
2021/01/17 02:02:55;;;;;;;9.80;4.65;;;-4.40;99.90;;;;;;5050180;28;20035;-76
2021/01/17 02:05:21;;;;;;;10.82;4.57;;;-4.40;99.90;;;;;;5069157;28;20638;-75
2021/01/17 02:07:52;;;;;;;8.52;4.32;;;-4.50;99.90;;;;;;5065808;28;20032;-75
2021/01/17 02:10:18;;;;;;;16.30;4.65;;;-4.50;99.90;;;;;;5068837;28;20029;-75
2021/01/17 02:12:56;;;;;;;9.48;4.63;;;-4.60;99.90;;;;;;5068860;28;20025;-75
2021/01/17 02:15:27;;;;;;;16.45;5.43;;;-4.60;99.90;;;;;;5069923;28;20563;-75
2021/01/17 02:17:53;;;;;;;14.43;5.18;;;-4.60;99.90;;;;;;5068811;28;20086;-76
2021/01/17 02:20:28;;;;;;;17.40;5.68;;;-4.60;99.90;;;;;;5069811;28;20029;-75
2021/01/17 02:23:00;;;;;;;10.90;5.05;;;-4.60;99.90;;;;;;5068472;28;20037;-75
2021/01/17 02:25:35;;;;;;;11.23;4.95;;;-4.60;99.90;;;;;;5051629;28;20051;-75
2021/01/17 02:28:05;;;;;;;10.93;5.65;;;-4.60;99.90;;;;;;5068949;28;20028;-75
2021/01/17 02:30:34;;;;;;;11.82;5.63;;;-4.50;99.90;;;;;;5062063;28;20047;-75
2021/01/17 02:33:11;;;;;;;9.57;4.55;;;-4.50;99.90;;;;;;5066732;28;20040;-75
2021/01/17 02:35:39;;;;;;;10.52;4.93;;;-4.50;99.90;;;;;;5049731;28;20033;-75
2021/01/17 02:38:29;;;;;;;11.80;5.40;;;-4.40;99.90;;;;;;5049588;28;20050;-75
2021/01/17 02:41:08;;;;;;;10.98;5.10;;;-4.40;99.90;;;;;;5069302;28;20036;-76
2021/01/17 02:43:34;;;;;;;10.77;5.63;;;-4.40;99.90;;;;;;5069888;28;20035;-75
2021/01/17 02:46:00;;;;;;;10.20;4.68;;;-4.40;99.90;;;;;;5067880;28;20025;-75
2021/01/17 02:48:25;;;;;;;12.32;5.53;;;-4.40;99.90;;;;;;5050475;28;20036;-75
2021/01/17 02:50:51;;;;;;;9.55;5.00;;;-4.30;99.90;;;;;;5069700;28;20060;-75
2021/01/17 02:53:33;;;;;;;9.18;4.78;;;-4.20;99.90;;;;;;5051741;28;20033;-75
2021/01/17 02:56:01;;;;;;;9.55;4.85;;;-4.20;99.90;;;;;;5068289;28;20071;-75
2021/01/17 02:58:28;;;;;;;10.52;4.45;;;-4.20;99.90;;;;;;5068273;28;20059;-75
2021/01/17 03:00:56;;;;;;;10.35;4.25;;;-4.20;99.90;;;;;;5051328;28;20063;-75
2021/01/17 03:03:35;;;;;;;7.78;4.45;;;-4.20;99.90;;;;;;5069765;28;20081;-75
2021/01/17 03:06:06;;;;;;;10.02;5.05;;;-4.10;99.90;;;;;;5051235;28;20060;-76
2021/01/17 03:08:32;;;;;;;14.00;5.53;;;-4.20;99.90;;;;;;5068696;28;20056;-75
2021/01/17 03:10:57;;;;;;;10.25;4.68;;;-4.30;99.90;;;;;;5069270;28;20064;-75
2021/01/17 03:13:24;;;;;;;11.30;4.93;;;-4.30;99.90;;;;;;5051634;28;20923;-75
2021/01/17 03:15:50;;;;;;;10.52;5.13;;;-4.40;99.90;;;;;;5069361;28;20104;-75
2021/01/17 03:18:15;;;;;;;8.60;4.57;;;-4.40;99.90;;;;;;5067789;28;20404;-75
2021/01/17 03:20:41;;;;;;;11.50;5.68;;;-4.50;99.90;;;;;;5069412;28;20040;-75
2021/01/17 03:23:07;;;;;;;10.20;5.30;;;-4.40;99.90;;;;;;5052403;28;20036;-75
2021/01/17 03:25:32;;;;;;;12.45;4.32;;;-4.50;99.90;;;;;;5072953;28;20040;-75
2021/01/17 03:27:58;;;;;;;10.90;5.05;;;-4.40;99.90;;;;;;5053590;28;20047;-75
2021/01/17 03:30:24;;;;;;;9.07;4.35;;;-4.50;99.90;;;;;;5055135;28;20104;-76
2021/01/17 03:32:50;;;;;;;8.27;4.97;;;-4.50;99.90;;;;;;5072845;28;20111;-75
2021/01/17 03:35:15;;;;;;;14.60;6.07;;;-4.50;99.90;;;;;;5071936;28;20036;-76
2021/01/17 03:37:41;;;;;;;9.05;4.55;;;-4.60;99.90;;;;;;5071507;28;20028;-75
2021/01/17 03:40:07;;;;;;;12.18;5.38;;;-4.50;99.90;;;;;;5072566;28;20029;-76
2021/01/17 03:42:33;;;;;;;9.32;5.00;;;-4.40;99.90;;;;;;5072740;28;20055;-76
2021/01/17 03:44:59;;;;;;;11.95;5.53;;;-4.40;99.90;;;;;;5053287;28;20024;-76
2021/01/17 03:47:25;;;;;;;12.15;5.00;;;-4.40;99.90;;;;;;5070879;28;20037;-76
2021/01/17 03:49:51;;;;;;;16.83;6.10;;;-4.30;99.90;;;;;;5054769;28;20040;-76
2021/01/17 03:52:16;;;;;;;11.32;5.85;;;-4.20;99.90;;;;;;5072528;28;20056;-76
2021/01/17 03:54:42;;;;;;;9.38;4.93;;;-4.10;99.90;;;;;;5071070;28;20025;-76
2021/01/17 03:57:08;;;;;;;10.00;4.65;;;-4.20;99.90;;;;;;5057002;28;20106;-76
2021/01/17 03:59:33;;;;;;;10.38;5.20;;;-4.20;99.90;;;;;;5052321;28;20127;-76
2021/01/17 04:01:59;;;;;;;12.88;4.95;;;-4.20;99.90;;;;;;5052344;28;20029;-76
2021/01/17 04:04:25;;;;;;;14.35;6.30;;;-4.20;99.90;;;;;;5017528;28;20140;-76
2021/01/17 04:06:50;;;;;;;12.98;5.38;;;-4.10;99.90;;;;;;5065261;28;20024;-76
2021/01/17 04:09:16;;;;;;;11.57;5.53;;;-4.10;99.90;;;;;;5072205;28;20071;-76
2021/01/17 04:11:42;;;;;;;10.65;5.40;;;-4.10;99.90;;;;;;5070840;28;20036;-75
2021/01/17 04:14:08;;;;;;;11.07;4.88;;;-4.10;99.90;;;;;;5070781;28;20075;-75
2021/01/17 04:16:33;;;;;;;11.93;4.88;;;-4.10;99.90;;;;;;5070920;28;20036;-76
2021/01/17 04:18:59;;;;;;;11.07;5.03;;;-4.10;99.90;;;;;;5070956;28;20036;-77
2021/01/17 04:21:25;;;;;;;11.13;4.68;;;-4.10;99.90;;;;;;5071667;28;20119;-76
2021/01/17 04:23:50;;;;;;;13.40;5.25;;;-4.10;99.90;;;;;;5071978;28;20040;-76
2021/01/17 04:26:18;;;;;;;8.85;4.45;;;-4.10;99.90;;;;;;5070431;28;20115;-75
2021/01/17 04:28:44;;;;;;;9.70;4.70;;;-4.00;99.90;;;;;;5071923;28;20058;-76
2021/01/17 04:31:10;;;;;;;11.77;5.57;;;-4.00;99.90;;;;;;5071756;28;20024;-76
2021/01/17 04:33:36;;;;;;;12.40;5.47;;;-4.10;99.90;;;;;;5053444;28;20032;-76
2021/01/17 04:36:03;;;;;;;9.80;4.85;;;-4.00;99.90;;;;;;5053571;28;20040;-76
2021/01/17 04:38:31;;;;;;;12.95;6.32;;;-4.10;99.90;;;;;;5070599;28;20037;-76
2021/01/17 04:41:04;;;;;;;16.13;6.05;;;-4.00;99.90;;;;;;5053546;28;20534;-76
2021/01/17 04:43:40;;;;;;;12.43;5.45;;;-3.90;99.90;;;;;;5071501;28;20036;-76
2021/01/17 04:46:09;;;;;;;11.00;5.55;;;-3.90;99.90;;;;;;5052479;28;20040;-76
2021/01/17 04:48:37;;;;;;;11.73;5.97;;;-3.90;99.90;;;;;;5070814;28;20032;-76
2021/01/17 04:51:04;;;;;;;9.18;4.85;;;-3.80;99.90;;;;;;5071204;28;20075;-76
2021/01/17 04:53:36;;;;;;;10.02;5.55;;;-3.90;99.90;;;;;;5071510;28;20074;-76
2021/01/17 04:56:29;;;;;;;9.68;5.05;;;-3.90;99.90;;;;;;5071108;28;20029;-76
2021/01/17 04:59:14;;;;;;;7.72;4.15;;;-3.90;99.90;;;;;;5048175;28;20127;-76
2021/01/17 05:01:46;;;;;;;13.00;5.18;;;-3.90;99.90;;;;;;5053401;28;20414;-76
2021/01/17 05:04:45;;;;;;;11.40;4.35;;;-3.80;99.90;;;;;;5052989;28;20024;-76
2021/01/17 05:07:24;;;;;;;10.20;4.72;;;-3.90;99.90;;;;;;5061761;28;20097;-76
2021/01/17 05:10:05;;;;;;;12.35;5.38;;;-3.90;99.90;;;;;;5070706;28;20396;-75
2021/01/17 05:12:52;;;;;;;13.82;5.03;;;-3.90;99.90;;;;;;5070786;28;20029;-76
2021/01/17 05:15:22;;;;;;;9.90;4.60;;;-3.90;99.90;;;;;;5071042;28;20029;-75
2021/01/17 05:17:48;;;;;;;8.77;4.90;;;-3.90;99.90;;;;;;5069313;28;20544;-76
2021/01/17 05:20:15;;;;;;;11.18;5.60;;;-3.80;99.90;;;;;;5070413;28;20024;-76
2021/01/17 05:22:43;;;;;;;11.40;5.65;;;-3.80;99.90;;;;;;5070724;28;20032;-76
2021/01/17 05:25:09;;;;;;;10.98;5.50;;;-3.90;99.90;;;;;;5070664;28;20033;-76
2021/01/17 05:27:36;;;;;;;13.13;6.10;;;-3.80;99.90;;;;;;5069324;28;20085;-76
2021/01/17 05:30:06;;;;;;;11.95;5.53;;;-3.80;99.90;;;;;;5053070;28;20358;-76
2021/01/17 05:32:33;;;;;;;10.50;5.05;;;-3.80;99.90;;;;;;5070288;28;20036;-75
2021/01/17 05:34:59;;;;;;;10.95;5.30;;;-3.80;99.90;;;;;;5070423;28;20024;-76
2021/01/17 05:37:25;;;;;;;11.90;5.13;;;-3.80;99.90;;;;;;5069406;28;20056;-75
2021/01/17 05:39:54;;;;;;;13.48;5.55;;;-3.80;99.90;;;;;;5070418;28;20531;-75
2021/01/17 05:42:30;;;;;;;9.35;4.88;;;-3.80;99.90;;;;;;5052643;28;20052;-76
2021/01/17 05:45:10;;;;;;;11.57;5.05;;;-3.90;99.90;;;;;;5069069;28;20578;-76
2021/01/17 05:47:36;;;;;;;10.65;5.07;;;-4.00;99.90;;;;;;5050727;28;20036;-76
2021/01/17 05:50:21;;;;;;;14.15;6.13;;;-4.00;99.90;;;;;;5052275;28;20025;-75
2021/01/17 05:52:54;;;;;;;12.25;5.35;;;-4.00;99.90;;;;;;5070450;28;20399;-76
2021/01/17 05:55:34;;;;;;;13.57;6.00;;;-4.00;99.90;;;;;;5070091;28;20039;-76
2021/01/17 05:58:22;;;;;;;12.50;5.68;;;-4.00;99.90;;;;;;5067565;28;20495;-75
2021/01/17 06:01:14;;;;;;;14.48;6.60;;;-4.10;99.90;;;;;;5070014;28;20119;-75
2021/01/17 06:03:54;;;;;;;11.23;5.95;;;-4.20;99.90;;;;;;5099107;22;20502;-74
2021/01/17 06:06:30;;;;;;;11.30;6.03;;;-4.10;99.90;;;;;;5069062;28;20840;-75
2021/01/17 06:08:58;;;;;;;10.90;6.03;;;-4.10;99.90;;;;;;5081043;28;20066;-75
2021/01/17 06:11:24;;;;;;;14.73;5.78;;;-4.10;99.90;;;;;;5088846;28;20032;-75
2021/01/17 06:13:58;;;;;;;13.55;6.50;;;-4.10;99.90;;;;;;5090307;28;20031;-75
2021/01/17 06:16:24;;;;;;;16.85;6.88;;;-4.10;99.90;;;;;;5090735;28;20055;-75
2021/01/17 06:18:58;;;;;;;10.00;5.05;;;-4.10;99.90;;;;;;5096193;28;20059;-75
2021/01/17 06:21:25;;;;;;;12.80;6.30;;;-4.10;99.90;;;;;;5070668;28;20032;-75
2021/01/17 06:24:08;;;;;;;14.18;6.65;;;-4.00;99.90;;;;;;5089935;28;20024;-75
2021/01/17 06:26:36;;;;;;;11.27;5.72;;;-4.00;99.90;;;;;;5070591;28;20036;-75
2021/01/17 06:29:05;;;;;;;13.95;6.25;;;-4.00;99.90;;;;;;5090238;28;20089;-75
2021/01/17 06:31:32;;;;;;;14.20;6.78;;;-4.10;99.90;;;;;;5089560;28;20483;-75
2021/01/17 06:34:06;;;;;;;14.63;6.72;;;-4.00;99.90;;;;;;5090018;28;20046;-75
2021/01/17 06:36:34;;;;;;;13.75;6.13;;;-4.00;99.90;;;;;;5088684;28;20544;-75
2021/01/17 06:39:00;;;;;;;14.48;6.50;;;-4.00;99.90;;;;;;5090056;28;20032;-75
2021/01/17 06:41:39;;;;;;;15.43;6.72;;;-4.00;99.90;;;;;;5071805;28;20071;-75
2021/01/17 06:44:07;;;;;;;10.45;6.25;;;-4.00;99.90;;;;;;5090189;28;20518;-75
2021/01/17 06:46:46;;;;;;;14.40;6.43;;;-3.90;99.90;;;;;;5088705;28;20896;-75
2021/01/17 06:49:25;;;;;;;13.40;6.18;;;-3.90;99.90;;;;;;5090036;28;20082;-75
2021/01/17 06:51:53;;;;;;;12.85;6.13;;;-3.90;99.90;;;;;;5089616;28;20107;-75
2021/01/17 06:54:39;;;;;;;17.63;6.40;;;-3.90;99.90;;;;;;5089722;28;20043;-75
2021/01/17 06:57:06;;;;;;;15.18;6.60;;;-4.00;99.90;;;;;;5088808;28;20036;-75
2021/01/17 06:59:40;;;;;;;14.90;6.15;;;-3.90;99.90;;;;;;5074544;28;20040;-75
2021/01/17 07:02:32;;;;;;;14.85;6.35;;;-3.90;99.90;;;;;;5093041;28;20114;-75
2021/01/17 07:05:19;;;;;;;12.77;5.90;;;-3.90;99.90;;;;;;5093787;28;20096;-75
2021/01/17 07:08:06;;;;;;;16.38;7.07;;;-3.90;99.90;;;;;;5092429;28;20044;-75
2021/01/17 07:10:41;;;;;;;14.68;7.88;;;-3.80;99.90;;;;;;5093220;28;20483;-75
2021/01/17 07:13:10;;;;;;;16.02;8.63;;;-3.80;99.90;;;;;;5093675;28;20410;-75
2021/01/17 07:15:41;;;;;;;14.43;7.80;;;-3.80;99.90;;;;;;5075031;28;20036;-75
2021/01/17 07:18:12;;;;;;;15.70;7.43;;;-3.90;99.90;;;;;;5073971;28;20103;-75
2021/01/17 07:20:41;;;;;;;13.32;6.40;;;-4.00;99.90;;;;;;5075185;28;20036;-74
2021/01/17 07:23:09;;;;;;;12.43;5.68;;;-3.90;99.90;;;;;;5074333;28;20036;-75
2021/01/17 07:25:37;;;;;;;17.50;7.22;;;-3.90;99.90;;;;;;5074899;28;20457;-74
2021/01/17 07:28:15;;;;;;;20.00;8.55;;;-3.90;99.90;;;;;;5092059;28;20085;-75
2021/01/17 07:31:00;;;;;;;16.70;7.47;;;-3.80;99.90;;;;;;5074275;28;20112;-75
2021/01/17 07:33:28;;;;;;;16.20;7.28;;;-3.80;99.90;;;;;;5075123;28;20061;-75
2021/01/17 07:36:01;;;;;;;14.00;7.30;;;-3.70;99.90;;;;;;5074848;28;20036;-75
2021/01/17 07:38:30;;;;;;;11.90;6.63;;;-3.70;99.90;;;;;;5091973;28;20059;-75
2021/01/17 07:41:08;;;;;;;14.55;6.60;;;-3.50;99.90;;;;;;5074495;28;20028;-75
2021/01/17 07:43:42;;;;;;;12.55;6.72;;;-3.50;99.90;;;;;;5075290;28;20032;-75
2021/01/17 07:46:17;;;;;;;13.60;6.47;;;-3.50;99.90;;;;;;5092291;28;20020;-74
2021/01/17 07:48:47;;;;;;;13.90;6.20;;;-3.70;99.90;;;;;;5092861;28;20114;-75
2021/01/17 07:51:15;;;;;;;15.00;6.40;;;-3.60;99.90;;;;;;5092669;28;20023;-75
2021/01/17 07:54:02;;;;;;;16.00;7.13;;;-3.70;99.90;;;;;;5057862;28;20165;-75
2021/01/17 07:56:37;;;;;;;19.67;6.50;;;-3.70;99.90;;;;;;5091351;28;20045;-75
2021/01/17 07:59:07;;;;;;;16.20;7.07;;;-3.70;99.90;;;;;;5085500;28;20028;-75
2021/01/17 08:01:38;;;;;;;16.90;8.32;;;-3.70;99.90;;;;;;5071824;28;20032;-75
2021/01/17 08:04:04;;;;;;;18.83;8.15;;;-3.70;99.90;;;;;;5072266;28;20040;-74
2021/01/17 08:06:35;;;;;;;16.50;7.78;;;-3.70;99.90;;;;;;5072246;28;20032;-75
2021/01/17 08:09:12;;;;;;;16.23;7.68;;;-3.80;99.90;;;;;;5066959;28;20077;-75
2021/01/17 08:11:48;;;;;;;15.45;6.97;;;-3.80;99.90;;;;;;5054024;28;20031;-75
2021/01/17 08:14:26;;;;;;;14.65;6.47;;;-3.80;99.90;;;;;;5039594;28;20407;-75
2021/01/17 08:17:11;;;;;;;16.05;7.22;;;-3.70;99.90;;;;;;5090786;28;20676;-75
2021/01/17 08:19:39;;;;;;;15.63;6.43;;;-3.70;99.90;;;;;;5083201;28;20032;-75
2021/01/17 08:22:17;;;;;;;16.70;7.20;;;-3.70;99.90;;;;;;5088433;28;20047;-75
2021/01/17 08:24:47;;;;;;;16.60;6.47;;;-3.60;99.90;;;;;;5091553;28;20027;-74
2021/01/17 08:27:30;;;;;;;18.15;8.00;;;-3.60;99.90;;;;;;5093197;28;20068;-75
2021/01/17 08:32:45;;;;;;;15.77;7.10;;;-3.60;99.90;;;;;;5091361;28;20055;-75
2021/01/17 08:35:10;;;;;;;14.10;7.03;;;-3.50;99.90;;;;;;5087135;28;20020;-75
2021/01/17 08:37:37;;;;;;;14.15;6.32;;;-3.50;99.90;;;;;;5090877;28;20506;-75
2021/01/17 08:40:04;;;;;;;13.48;6.18;;;-3.40;99.90;;;;;;5052987;28;20024;-75
2021/01/17 08:42:30;;;;;;;16.35;7.35;;;-3.40;99.90;;;;;;5088737;28;20191;-75
2021/01/17 08:44:56;;;;;;;14.00;7.35;;;-3.30;99.90;;;;;;5085717;28;20130;-75
2021/01/17 08:47:22;;;;;;;21.20;9.02;;;-3.30;99.90;;;;;;5065721;28;20028;-75
2021/01/17 08:49:52;;;;;;;18.02;8.52;;;-3.30;99.90;;;;;;5084919;28;20038;-75
2021/01/17 08:52:28;;;;;;;19.98;8.60;;;-3.20;99.90;;;;;;5071404;28;20035;-75
2021/01/17 08:54:54;;;;;;;15.75;7.35;;;-3.10;99.90;;;;;;5070968;28;20980;-75
2021/01/17 08:57:52;;;;;;;20.00;8.98;;;-3.10;99.90;;;;;;5070926;28;20024;-75
2021/01/17 09:00:18;;;;;;;20.38;8.13;;;-3.00;99.90;;;;;;5068875;28;20120;-75
2021/01/17 09:02:43;;;;;;;14.73;7.80;;;-3.00;99.90;;;;;;5071957;28;20077;-75
2021/01/17 09:05:19;;;;;;;18.35;8.65;;;-3.00;99.90;;;;;;5063066;28;20535;-75
2021/01/17 09:07:46;;;;;;;16.38;7.00;;;-3.00;99.90;;;;;;5085117;28;20074;-75
2021/01/17 09:10:16;;;;;;;17.98;7.38;;;-3.00;99.90;;;;;;5073049;28;20024;-75
2021/01/17 09:12:43;;;;;;;19.05;8.55;;;-3.10;99.90;;;;;;5090923;28;20054;-75
2021/01/17 09:15:18;;;;;;;18.50;8.25;;;-3.10;99.90;;;;;;5091248;28;20020;-75
2021/01/17 09:17:57;;;;;;;18.75;9.25;;;-3.20;99.90;;;;;;5089350;28;20117;-74
2021/01/17 09:20:24;;;;;;;17.35;7.70;;;-3.30;99.90;;;;;;5086688;28;20123;-75
2021/01/17 09:22:50;;;;;;;19.35;9.25;;;-3.30;99.90;;;;;;5070360;28;20039;-75
2021/01/17 09:25:16;;;;;;;22.70;8.95;;;-3.30;99.90;;;;;;5072726;28;20032;-75
2021/01/17 09:27:43;;;;;;;22.75;10.15;;;-3.20;99.90;;;;;;5071395;28;20078;-75
2021/01/17 09:30:21;;;;;;;24.25;9.52;;;-3.10;99.90;;;;;;5062689;28;20020;-75
2021/01/17 09:32:48;;;;;;;23.58;8.80;;;-3.10;99.90;;;;;;5087701;28;20020;-75
2021/01/17 09:35:14;;;;;;;19.45;9.50;;;-3.00;99.90;;;;;;5087333;28;20032;-75
2021/01/17 09:37:41;;;;;;;19.30;9.95;;;-2.90;99.90;;;;;;5082117;28;20108;-75
2021/01/17 09:40:07;;;;;;;21.40;9.63;;;-2.80;99.90;;;;;;5089504;28;20530;-75
2021/01/17 09:42:33;;;;;;;22.77;9.98;;;-2.80;99.90;;;;;;5088274;28;20111;-75
2021/01/17 09:45:01;;;;;;;21.27;10.15;;;-2.80;99.90;;;;;;5069325;28;20226;-75
2021/01/17 09:47:28;;;;;;;25.77;10.60;;;-3.00;99.90;;;;;;5081593;28;20063;-75
2021/01/17 09:49:55;;;;;;;22.90;8.90;;;-2.90;99.90;;;;;;5084717;28;20556;-75
2021/01/17 09:52:25;;;;;;;27.80;12.15;;;-2.90;99.90;;;;;;5063926;28;20052;-75
2021/01/17 09:54:54;;;;;;;24.15;10.75;;;-2.90;99.90;;;;;;5069164;28;20024;-75
2021/01/17 09:57:20;;;;;;;28.88;11.13;;;-2.80;99.90;;;;;;5087224;28;20042;-75
2021/01/17 09:59:48;;;;;;;24.00;10.43;;;-2.80;99.90;;;;;;5083840;28;20020;-75
2021/01/17 10:02:17;;;;;;;24.05;10.77;;;-2.70;99.90;;;;;;5088476;28;20047;-75
2021/01/17 10:04:43;;;;;;;23.38;11.48;;;-2.70;99.90;;;;;;5086582;28;20042;-75
2021/01/17 10:07:14;;;;;;;28.10;10.38;;;-2.60;99.90;;;;;;5069325;28;20051;-75
2021/01/17 10:09:40;;;;;;;26.55;11.38;;;-2.60;99.90;;;;;;5069137;28;20020;-75
2021/01/17 10:12:06;;;;;;;27.73;11.35;;;-2.50;99.90;;;;;;5082054;28;20120;-75
2021/01/17 10:14:33;;;;;;;28.52;11.68;;;-2.50;99.90;;;;;;5074390;28;20447;-75
2021/01/17 10:17:02;;;;;;;28.63;12.25;;;-2.50;99.90;;;;;;5060388;28;20129;-75
2021/01/17 10:19:30;;;;;;;35.60;11.95;;;-2.50;99.90;;;;;;5077814;28;20043;-75
2021/01/17 10:21:57;;;;;;;25.58;10.63;;;-2.50;99.90;;;;;;5050977;28;20116;-75
2021/01/17 10:24:24;;;;;;;28.05;11.43;;;-2.50;99.90;;;;;;5030565;28;20035;-75
2021/01/17 10:26:52;;;;;;;24.48;11.70;;;-2.40;99.90;;;;;;5065895;28;20040;-76
2021/01/17 10:29:29;;;;;;;24.83;11.55;;;-2.40;99.90;;;;;;5062819;28;20032;-75
2021/01/17 10:32:05;;;;;;;30.00;12.15;;;-2.40;99.90;;;;;;5082444;28;20111;-75
2021/01/17 10:34:34;;;;;;;29.75;13.02;;;-2.40;99.90;;;;;;5084940;28;20051;-75
2021/01/17 10:37:05;;;;;;;25.50;11.60;;;-2.40;99.90;;;;;;5045990;28;20115;-76
2021/01/17 10:39:33;;;;;;;26.75;11.25;;;-2.40;99.90;;;;;;5080130;28;20868;-75
2021/01/17 10:42:24;;;;;;;29.23;12.40;;;-2.30;99.90;;;;;;5077125;28;20039;-75
2021/01/17 10:44:55;;;;;;;28.33;11.57;;;-2.20;99.90;;;;;;5061919;28;20070;-75
2021/01/17 10:47:36;;;;;;;29.05;12.40;;;-2.20;99.90;;;;;;5076778;28;20048;-75
2021/01/17 10:50:09;;;;;;;28.30;12.48;;;-2.20;99.90;;;;;;5051232;28;20020;-76
2021/01/17 10:52:40;;;;;;;33.70;13.23;;;-2.20;99.90;;;;;;5061364;28;20098;-75
2021/01/17 10:55:07;;;;;;;26.67;11.38;;;-2.20;99.90;;;;;;5060287;28;20025;-75
2021/01/17 10:57:36;;;;;;;35.90;14.48;;;-2.20;99.90;;;;;;5078934;28;20034;-75
2021/01/17 11:00:09;;;;;;;32.92;13.00;;;-2.20;99.90;;;;;;5081139;28;20035;-75
2021/01/17 11:02:34;;;;;;;34.70;14.65;;;-2.20;99.90;;;;;;5066097;28;20496;-76
2021/01/17 11:05:00;;;;;;;30.42;13.40;;;-2.20;99.90;;;;;;5064783;28;20089;-75
2021/01/17 11:07:29;;;;;;;27.77;12.43;;;-2.30;99.90;;;;;;5079389;28;20035;-75
2021/01/17 11:09:56;;;;;;;28.73;12.32;;;-2.40;99.90;;;;;;5060721;28;20043;-76
2021/01/17 11:12:38;;;;;;;30.40;13.00;;;-2.50;99.90;;;;;;5079162;28;20656;-75
2021/01/17 11:15:18;;;;;;;34.63;13.88;;;-2.40;99.90;;;;;;5079928;28;20038;-75
2021/01/17 11:17:51;;;;;;;29.58;12.07;;;-2.30;99.90;;;;;;5078688;28;20040;-75
2021/01/17 11:20:23;;;;;;;36.20;12.95;;;-2.30;99.90;;;;;;5079747;28;20035;-75
2021/01/17 11:22:51;;;;;;;29.85;13.32;;;-2.20;99.90;;;;;;5079342;28;20039;-75
2021/01/17 11:25:20;;;;;;;27.40;12.00;;;-2.20;99.90;;;;;;5060503;28;20097;-75
2021/01/17 11:27:46;;;;;;;30.55;12.32;;;-2.20;99.90;;;;;;5078241;28;20032;-75
2021/01/17 11:30:14;;;;;;;27.38;11.80;;;-2.20;99.90;;;;;;5063385;28;20028;-75
2021/01/17 11:32:40;;;;;;;25.70;11.50;;;-2.10;99.90;;;;;;5065603;28;20473;-75
2021/01/17 11:35:21;;;;;;;29.60;12.57;;;-2.10;99.90;;;;;;5082585;28;20118;-75
2021/01/17 11:37:49;;;;;;;30.65;12.88;;;-2.10;99.90;;;;;;5059744;28;20484;-75
2021/01/17 11:40:18;;;;;;;29.60;13.90;;;-2.00;99.90;;;;;;5054913;28;20036;-75
2021/01/17 11:42:44;;;;;;;33.90;12.75;;;-1.90;99.90;;;;;;5038465;28;20618;-75
2021/01/17 11:45:40;;;;;;;33.83;12.75;;;-1.80;99.90;;;;;;5073780;28;20028;-76
2021/01/17 11:48:06;;;;;;;32.63;12.77;;;-1.80;99.90;;;;;;5054157;28;20123;-76
2021/01/17 11:50:32;;;;;;;29.08;12.98;;;-1.70;99.90;;;;;;5075849;28;20797;-76
2021/01/17 11:53:03;;;;;;;30.73;12.20;;;-1.60;99.90;;;;;;5077298;28;20135;-76
2021/01/17 11:55:29;;;;;;;26.65;12.45;;;-1.60;99.90;;;;;;5060405;28;20024;-75
2021/01/17 11:58:16;;;;;;;29.30;12.40;;;-1.60;99.90;;;;;;5043511;28;20028;-76
2021/01/17 12:00:52;;;;;;;31.95;13.27;;;-1.60;99.90;;;;;;5069180;28;20043;-76
2021/01/17 12:03:23;;;;;;;28.85;11.88;;;-1.60;99.90;;;;;;5072997;28;20174;-76
2021/01/17 12:06:18;;;;;;;34.50;14.35;;;-1.60;99.90;;;;;;5087313;28;20114;-75
2021/01/17 12:08:53;;;;;;;31.53;13.00;;;-1.50;99.90;;;;;;5080799;28;20032;-75
2021/01/17 12:11:39;;;;;;;28.67;12.95;;;-1.40;99.90;;;;;;5081533;28;20270;-76
2021/01/17 12:14:21;;;;;;;31.90;12.07;;;-1.40;99.90;;;;;;5082025;28;20028;-76
2021/01/17 12:16:54;;;;;;;27.30;13.05;;;-1.40;99.90;;;;;;5080763;28;20826;-77
2021/01/17 12:19:23;;;;;;;31.17;12.48;;;-1.40;99.90;;;;;;5083662;28;20051;-76
2021/01/17 12:21:52;;;;;;;25.15;11.80;;;-1.40;99.90;;;;;;5082635;28;20111;-75
2021/01/17 12:24:18;;;;;;;21.45;10.82;;;-1.40;99.90;;;;;;5079153;28;20028;-75
2021/01/17 12:26:45;;;;;;;30.83;13.88;;;-1.40;99.90;;;;;;5076833;28;20034;-76
2021/01/17 12:29:13;;;;;;;31.88;13.13;;;-1.40;99.90;;;;;;5062447;28;20079;-76
2021/01/17 12:31:40;;;;;;;24.23;11.15;;;-1.30;99.90;;;;;;5066580;28;20048;-76
2021/01/17 12:34:08;;;;;;;23.48;10.88;;;-1.30;99.90;;;;;;5087107;28;20562;-76
2021/01/17 12:36:35;;;;;;;29.13;11.48;;;-1.20;99.90;;;;;;5082500;28;20088;-76
2021/01/17 12:39:02;;;;;;;27.92;11.63;;;-1.20;99.90;;;;;;5062418;28;20025;-76
2021/01/17 12:41:36;;;;;;;30.40;12.85;;;-1.10;99.90;;;;;;5075550;28;20149;-74
2021/01/17 12:44:04;;;;;;;30.80;12.88;;;-1.00;99.90;;;;;;5060313;28;20040;-75
2021/01/17 12:46:30;;;;;;;28.40;11.25;;;-1.10;99.90;;;;;;5044926;28;20617;-76
2021/01/17 12:48:56;;;;;;;26.77;12.43;;;-1.00;99.90;;;;;;5081848;28;20030;-76
2021/01/17 12:51:22;;;;;;;25.38;11.20;;;-0.90;99.90;;;;;;5081754;28;20023;-76
2021/01/17 12:53:50;;;;;;;24.35;10.95;;;-0.90;99.90;;;;;;5083730;28;20035;-76